Watertown, Connecticut
Current Conditions -  °F | °C
As of 1:15 PM on Monday 26 Jan 2015 (Local Time) from KOXC Reporting Station
Haze Haze  
Wind Chill: -15°   Ceiling: 3500
Heat Index: -8°   Visibility: 4mi
Dew Point: -14°   Wind: 12mph
Humidity: 63%   Direction: 60°ENE
Pressure: 29.91"   Gusts: 18mph
Location:  41.61°N, 73.12°W
Report Text: KOXC 261815Z 06010G16KT 4SM BR OVC035 M08/M14 A2991
Loading
Personal Weather Stations






























Interactive Weather Map New forecast layout! Learn more

10-Day Weather Forecast

Advertisements
Track Severe Weather on mobile